Airfield :
LOGIN :

Register | Disclaimer

   EN    FR    IT 

 










Legend :    VFR   Marginal VFR   IFR   Intensive IFR   Very Intensive IFR
Visi :
Ceiling :
>= 8 km
>= 3000ft
5 to 8 km
1000 to 3000 ft
1500m to 5 km
500 to 1000 ft
800 to 1500m
200 to 500 ft
< 800m
< 200 ft
Symbols :   Thunderstorms  Fog  Heavy snow  Heavy precipitations  Wind > 20 kt
SIGMETs :     Misc.  Thunderstorms  Icing  Turbulence  Mountain Waves  Volcanic Ashes






- Airport Elevation : -13 ft
- IATA code : LEY


EHLE - Lelystad

CURRENT METAR :
  • 180755Z AUTO 21009KT 9999 SCT026 BKN030 04/03 Q1020 TEMPO 7000 -SHRA FEW020CB

EXPIRED METARs :
  • 180725Z AUTO 21009KT 180V240 9999 NCD 03/02 Q1020 TEMPO 7000 -SHRA FEW020CB
  • 180655Z AUTO 22010KT 9999 NCD 03/02 Q1020 NOSIG
  • 180625Z AUTO 22010KT 9999 FEW017 BKN022 BKN031 04/03 Q1019 NOSIG
  • 180555Z AUTO 21009KT 9999 NCD 04/03 Q1019 NOSIG
  • 180525Z AUTO 21010KT 180V240 9999 FEW015CB 04/03 Q1019 REDZ

TAF TAF EHLE
Valid from the 18 at 06:00 until the 19 at 12:00 UTC


180506Z 1806/1912 24012KT 9999 SCT025
PROB30
TEMPO 1806/1906 29015G25KT 6000 SHRA SCT018CB BKN020
BECMG 1807/1810 29013KT
BECMG 1900/1903 33012KT
BECMG 1906/1909 36012KT



MET'MAP, your aeronautical weather chart ! - Copyright ORBIFLY December 2007 - Disclaimer

ORBIFLY MET'MAP TEAM :

Programming & Development : Alexandra Zaïnal
Concept & original design : Baudouin d'Aumeries
Assistance for programming : Marc-Olivier Méhu
Technical & hardware support : Manuel Goepfert

Contact : metmap@orbifly.com




SOURCES & CREDITS :

   NOAA